Time;durP1;ratioP1;P1;durP2;ratioP2;P2;SDS_P1;SDS_P2;PMS_P1;PMS_P2;Temp;Humidity;BMP_temperature;BMP_pressure;BME280_temperature;BME280_humidity;BME280_pressure;Samples;Min_cycle;Max_cycle;Signal;HPM_P1;HPM_P2
2022/03/28 00:02:17;;;;;;;7.27;5.23;;;;;;;;;;4939842;28;20436;-51
2022/03/28 00:04:48;;;;;;;12.53;7.40;;;;;;;;;;4936551;28;20462;-51
2022/03/28 00:07:15;;;;;;;6.50;4.87;;;;;;;;;;4941607;28;20439;-51
2022/03/28 00:09:44;;;;;;;13.37;5.60;;;;;;;;;;4941300;28;20486;-51
2022/03/28 00:12:12;;;;;;;12.40;5.37;;;;;;;;;;4964111;28;20506;-53
2022/03/28 00:14:38;;;;;;;10.60;7.00;;;;;;;;;;4963639;28;20440;-50
2022/03/28 00:17:04;;;;;;;10.93;6.70;;;;;;;;;;4938014;28;20469;-50
2022/03/28 00:19:30;;;;;;;11.60;7.40;;;;;;;;;;4934529;28;20454;-49
2022/03/28 00:21:56;;;;;;;8.90;5.80;;;;;;;;;;4936206;28;20455;-50
2022/03/28 00:24:22;;;;;;;10.70;6.03;;;;;;;;;;4939231;28;20287;-51
2022/03/28 00:26:49;;;;;;;10.53;5.77;;;;;;;;;;4939026;28;20571;-51
2022/03/28 00:29:16;;;;;;;11.70;5.90;;;;;;;;;;4972826;28;20984;-52
2022/03/28 00:31:43;;;;;;;11.70;5.97;;;;;;;;;;4935727;28;20464;-51
2022/03/28 00:34:09;;;;;;;10.33;6.13;;;;;;;;;;4933357;28;20443;-50
2022/03/28 00:36:38;;;;;;;8.73;6.17;;;;;;;;;;4942835;28;20485;-51
2022/03/28 00:39:04;;;;;;;10.90;5.17;;;;;;;;;;4935674;28;20474;-51
2022/03/28 00:41:38;;;;;;;8.43;5.70;;;;;;;;;;4916811;28;20498;-51
2022/03/28 00:44:06;;;;;;;7.90;4.57;;;;;;;;;;4933088;28;20439;-51
2022/03/28 00:46:33;;;;;;;8.57;5.80;;;;;;;;;;4940544;28;21106;-50
2022/03/28 00:48:59;;;;;;;12.57;6.20;;;;;;;;;;4940806;28;20469;-51
2022/03/28 00:51:26;;;;;;;9.60;6.20;;;;;;;;;;4941260;28;20627;-51
2022/03/28 00:53:52;;;;;;;9.90;6.20;;;;;;;;;;4946404;28;20447;-51
2022/03/28 00:56:18;;;;;;;12.27;7.27;;;;;;;;;;4941919;28;20430;-51
2022/03/28 00:58:44;;;;;;;9.80;5.87;;;;;;;;;;4944784;28;20573;-50
2022/03/28 01:01:10;;;;;;;11.50;6.20;;;;;;;;;;4955734;28;20468;-50
2022/03/28 01:03:36;;;;;;;10.40;6.30;;;;;;;;;;4935025;28;20453;-50
2022/03/28 01:06:04;;;;;;;12.80;7.07;;;;;;;;;;4939921;28;20446;-51
2022/03/28 01:08:33;;;;;;;9.10;5.73;;;;;;;;;;4941156;28;20442;-51
2022/03/28 01:11:00;;;;;;;12.57;6.40;;;;;;;;;;4943857;28;20457;-49
2022/03/28 01:13:26;;;;;;;11.93;6.27;;;;;;;;;;4936386;28;20447;-50
2022/03/28 01:15:52;;;;;;;9.00;6.53;;;;;;;;;;4938029;28;21001;-50
2022/03/28 01:18:18;;;;;;;12.50;7.13;;;;;;;;;;4939037;28;20438;-50
2022/03/28 01:20:45;;;;;;;14.57;8.23;;;;;;;;;;4932280;28;22710;-50
2022/03/28 01:23:12;;;;;;;16.17;7.10;;;;;;;;;;4967955;28;20900;-51
2022/03/28 01:25:39;;;;;;;14.53;6.03;;;;;;;;;;4936253;28;20843;-50
2022/03/28 01:28:05;;;;;;;11.40;6.00;;;;;;;;;;4939962;28;20540;-50
2022/03/28 01:30:31;;;;;;;9.93;5.13;;;;;;;;;;4939379;28;20542;-50
2022/03/28 01:32:59;;;;;;;10.03;6.47;;;;;;;;;;4934724;28;20442;-52
2022/03/28 01:35:29;;;;;;;7.93;5.63;;;;;;;;;;4935691;28;20445;-50
2022/03/28 01:37:55;;;;;;;8.90;5.27;;;;;;;;;;4937307;28;20617;-50
2022/03/28 01:40:21;;;;;;;9.70;6.33;;;;;;;;;;4933930;28;20483;-49
2022/03/28 01:42:49;;;;;;;11.10;6.90;;;;;;;;;;4930418;28;20443;-50
2022/03/28 01:45:16;;;;;;;11.57;6.90;;;;;;;;;;4936861;28;20791;-51
2022/03/28 01:47:42;;;;;;;12.73;6.70;;;;;;;;;;4940045;28;21000;-52
2022/03/28 01:50:09;;;;;;;10.10;5.40;;;;;;;;;;4938311;28;20446;-51
2022/03/28 01:52:38;;;;;;;13.03;9.73;;;;;;;;;;4945535;28;20420;-51
2022/03/28 01:55:05;;;;;;;12.90;6.30;;;;;;;;;;4941694;28;20451;-51
2022/03/28 01:57:34;;;;;;;10.83;6.90;;;;;;;;;;4950345;28;20994;-50
2022/03/28 02:00:01;;;;;;;12.70;6.60;;;;;;;;;;4944148;28;21000;-50
2022/03/28 02:02:27;;;;;;;8.13;5.47;;;;;;;;;;4947557;28;20467;-50
2022/03/28 02:04:55;;;;;;;8.37;6.10;;;;;;;;;;4937966;28;20483;-50
2022/03/28 02:07:21;;;;;;;10.10;6.03;;;;;;;;;;4955955;28;20517;-50
2022/03/28 02:09:47;;;;;;;10.53;6.83;;;;;;;;;;4935711;28;20504;-50
2022/03/28 02:12:13;;;;;;;10.63;5.73;;;;;;;;;;4944052;28;20535;-54
2022/03/28 02:14:42;;;;;;;9.73;5.80;;;;;;;;;;4944560;28;20514;-50
2022/03/28 02:17:08;;;;;;;11.60;5.90;;;;;;;;;;4943548;28;23214;-50
2022/03/28 02:19:35;;;;;;;10.60;6.20;;;;;;;;;;4940423;28;20478;-52
2022/03/28 02:22:01;;;;;;;8.07;5.33;;;;;;;;;;4937242;28;20451;-50
2022/03/28 02:24:28;;;;;;;9.63;5.50;;;;;;;;;;4934817;28;20538;-50
2022/03/28 02:26:54;;;;;;;10.50;6.73;;;;;;;;;;4944106;28;20435;-50
2022/03/28 02:29:21;;;;;;;10.33;6.47;;;;;;;;;;4940208;28;20479;-51
2022/03/28 02:31:47;;;;;;;11.47;6.43;;;;;;;;;;4935431;28;20453;-51
2022/03/28 02:34:14;;;;;;;12.63;6.17;;;;;;;;;;4935239;28;20900;-51
2022/03/28 02:36:42;;;;;;;16.27;7.23;;;;;;;;;;4941973;28;20491;-51
2022/03/28 02:39:08;;;;;;;12.53;5.70;;;;;;;;;;4946566;28;20560;-51
2022/03/28 02:41:34;;;;;;;9.73;5.60;;;;;;;;;;4934663;28;20493;-51
2022/03/28 02:44:01;;;;;;;9.70;5.20;;;;;;;;;;4973883;28;20435;-50
2022/03/28 02:46:28;;;;;;;11.43;6.40;;;;;;;;;;4937249;28;20895;-51
2022/03/28 02:48:54;;;;;;;9.30;5.50;;;;;;;;;;4939798;28;21016;-50
2022/03/28 02:51:23;;;;;;;8.90;6.47;;;;;;;;;;4932632;28;20455;-50
2022/03/28 02:53:50;;;;;;;10.23;5.60;;;;;;;;;;4939110;28;20198;-51
2022/03/28 02:56:17;;;;;;;8.53;4.60;;;;;;;;;;4941659;28;20446;-51
2022/03/28 02:58:44;;;;;;;11.80;5.77;;;;;;;;;;4970824;28;20448;-53
2022/03/28 03:01:14;;;;;;;8.90;6.13;;;;;;;;;;4940243;28;20483;-53
2022/03/28 03:03:40;;;;;;;11.23;6.37;;;;;;;;;;4939301;28;20458;-54
2022/03/28 03:06:06;;;;;;;13.30;6.63;;;;;;;;;;4939553;28;20459;-51
2022/03/28 03:08:32;;;;;;;9.70;5.57;;;;;;;;;;4938526;28;20467;-50
2022/03/28 03:10:58;;;;;;;14.17;6.60;;;;;;;;;;4940386;28;20451;-50
2022/03/28 03:13:24;;;;;;;13.17;6.53;;;;;;;;;;4941573;28;20445;-54
2022/03/28 03:15:50;;;;;;;12.50;6.60;;;;;;;;;;4938535;28;20203;-50
2022/03/28 03:18:16;;;;;;;13.83;5.43;;;;;;;;;;4945329;28;20462;-51
2022/03/28 03:20:58;;;;;;;12.93;6.60;;;;;;;;;;4934882;28;20647;-50
2022/03/28 03:23:26;;;;;;;9.43;6.13;;;;;;;;;;4946288;28;20451;-54
2022/03/28 03:25:53;;;;;;;11.60;6.00;;;;;;;;;;4940571;28;20443;-51
2022/03/28 03:28:20;;;;;;;10.03;5.83;;;;;;;;;;4939360;28;20432;-55
2022/03/28 03:30:46;;;;;;;14.80;6.73;;;;;;;;;;4941732;28;20451;-51
2022/03/28 03:33:12;;;;;;;12.17;8.10;;;;;;;;;;4925929;28;20514;-50
2022/03/28 03:35:39;;;;;;;9.53;6.20;;;;;;;;;;4937022;28;20439;-51
2022/03/28 03:38:06;;;;;;;8.20;5.43;;;;;;;;;;4937755;28;20564;-50
2022/03/28 03:40:33;;;;;;;11.13;6.80;;;;;;;;;;4950185;28;21187;-51
2022/03/28 03:42:59;;;;;;;11.57;6.03;;;;;;;;;;4938237;28;20490;-51
2022/03/28 03:45:26;;;;;;;8.30;6.37;;;;;;;;;;4938133;28;20487;-51
2022/03/28 03:47:52;;;;;;;11.13;5.97;;;;;;;;;;4937970;28;20440;-50
2022/03/28 03:50:18;;;;;;;12.57;6.60;;;;;;;;;;4939883;28;20442;-51
2022/03/28 03:52:44;;;;;;;9.77;7.10;;;;;;;;;;4932583;28;20444;-50
2022/03/28 03:55:10;;;;;;;12.80;7.40;;;;;;;;;;4958503;28;20442;-50
2022/03/28 03:57:36;;;;;;;13.27;6.43;;;;;;;;;;4946018;28;20794;-52
2022/03/28 04:00:07;;;;;;;9.83;6.47;;;;;;;;;;4934522;28;21009;-50
2022/03/28 04:02:33;;;;;;;15.90;7.57;;;;;;;;;;4941895;28;20439;-50
2022/03/28 04:05:00;;;;;;;13.50;6.80;;;;;;;;;;4933869;28;20451;-50
2022/03/28 04:07:44;;;;;;;11.13;6.17;;;;;;;;;;4933484;28;20476;-51
2022/03/28 04:10:13;;;;;;;13.07;6.23;;;;;;;;;;4938814;28;20455;-50
2022/03/28 04:12:39;;;;;;;10.33;5.80;;;;;;;;;;4930353;28;20530;-50
2022/03/28 04:15:06;;;;;;;10.00;5.90;;;;;;;;;;4937163;28;20598;-51
2022/03/28 04:17:43;;;;;;;12.27;6.70;;;;;;;;;;4939800;28;20447;-51
2022/03/28 04:20:10;;;;;;;10.00;5.93;;;;;;;;;;4941042;28;20932;-49
2022/03/28 04:22:36;;;;;;;13.13;6.33;;;;;;;;;;4940902;28;20439;-51
2022/03/28 04:25:03;;;;;;;9.20;5.57;;;;;;;;;;4943180;28;20439;-50
2022/03/28 04:27:30;;;;;;;9.20;6.27;;;;;;;;;;4938488;28;20786;-50
2022/03/28 04:29:56;;;;;;;13.63;7.67;;;;;;;;;;4943591;28;20526;-50
2022/03/28 04:32:22;;;;;;;13.17;7.90;;;;;;;;;;4936875;28;20537;-50
2022/03/28 04:35:00;;;;;;;9.60;5.93;;;;;;;;;;4937223;28;20435;-51
2022/03/28 04:37:27;;;;;;;11.13;6.03;;;;;;;;;;4932152;28;20966;-52
2022/03/28 04:39:53;;;;;;;13.00;7.00;;;;;;;;;;4937761;28;20511;-50
2022/03/28 04:42:19;;;;;;;12.63;6.63;;;;;;;;;;4933085;28;20459;-51
2022/03/28 04:44:45;;;;;;;9.30;6.70;;;;;;;;;;4965106;28;20466;-48
2022/03/28 04:47:11;;;;;;;13.07;8.50;;;;;;;;;;4938102;28;20450;-47
2022/03/28 04:49:37;;;;;;;15.13;6.00;;;;;;;;;;4939638;28;20503;-48
2022/03/28 04:52:03;;;;;;;11.73;7.07;;;;;;;;;;4931952;28;20533;-48
2022/03/28 04:54:29;;;;;;;11.20;6.40;;;;;;;;;;4929538;28;21088;-49
2022/03/28 04:57:04;;;;;;;8.07;5.97;;;;;;;;;;4931280;28;20462;-51
2022/03/28 05:02:17;;;;;;;11.60;5.77;;;;;;;;;;4944666;28;21013;-49
2022/03/28 05:04:43;;;;;;;13.10;5.90;;;;;;;;;;4942227;28;20863;-50
2022/03/28 05:07:09;;;;;;;16.63;7.60;;;;;;;;;;4939445;28;20486;-50
2022/03/28 05:09:35;;;;;;;11.47;6.23;;;;;;;;;;4944242;28;20499;-49
2022/03/28 05:12:01;;;;;;;14.03;6.10;;;;;;;;;;4945663;28;20447;-50
2022/03/28 05:14:28;;;;;;;11.83;6.67;;;;;;;;;;4941105;28;22032;-49
2022/03/28 05:16:54;;;;;;;13.40;8.00;;;;;;;;;;4942979;28;20439;-50
2022/03/28 05:19:20;;;;;;;11.63;6.30;;;;;;;;;;4944915;28;20572;-54
2022/03/28 05:21:46;;;;;;;12.00;6.60;;;;;;;;;;4947688;28;20498;-50
2022/03/28 05:24:12;;;;;;;9.73;5.60;;;;;;;;;;4944734;28;20534;-50
2022/03/28 05:26:38;;;;;;;11.00;6.57;;;;;;;;;;4948292;28;20605;-50
2022/03/28 05:29:07;;;;;;;12.40;7.40;;;;;;;;;;4943203;28;20447;-51
2022/03/28 05:31:33;;;;;;;14.03;8.20;;;;;;;;;;4938872;28;20854;-50
2022/03/28 05:34:24;;;;;;;15.70;7.53;;;;;;;;;;4944161;28;20439;-51
2022/03/28 05:36:55;;;;;;;13.50;6.40;;;;;;;;;;4944292;28;20462;-51
2022/03/28 05:39:21;;;;;;;13.40;7.03;;;;;;;;;;4940883;28;20499;-50
2022/03/28 05:41:47;;;;;;;15.73;7.40;;;;;;;;;;4951159;28;21825;-49
2022/03/28 05:44:13;;;;;;;13.87;7.33;;;;;;;;;;4960236;28;20434;-50
2022/03/28 05:46:39;;;;;;;16.40;7.37;;;;;;;;;;4942347;28;21072;-50
2022/03/28 05:49:05;;;;;;;13.77;6.83;;;;;;;;;;4933899;28;20542;-49
2022/03/28 05:51:31;;;;;;;11.77;5.97;;;;;;;;;;4933883;28;20442;-52
2022/03/28 05:53:58;;;;;;;10.67;7.07;;;;;;;;;;4943843;28;20470;-51
2022/03/28 05:56:24;;;;;;;13.77;7.30;;;;;;;;;;4943430;28;20551;-51
2022/03/28 05:58:51;;;;;;;15.00;7.67;;;;;;;;;;4950415;28;20431;-49
2022/03/28 06:01:17;;;;;;;12.23;6.47;;;;;;;;;;4945017;28;20478;-50
2022/03/28 06:03:43;;;;;;;11.07;7.03;;;;;;;;;;4947588;28;20430;-50
2022/03/28 06:06:09;;;;;;;14.83;8.03;;;;;;;;;;4946928;28;20499;-50
2022/03/28 06:08:36;;;;;;;14.97;6.97;;;;;;;;;;4951768;28;20435;-50
2022/03/28 06:11:03;;;;;;;12.93;7.07;;;;;;;;;;4944468;28;20454;-51
2022/03/28 06:13:30;;;;;;;11.93;6.80;;;;;;;;;;4947315;28;20434;-49
2022/03/28 06:15:56;;;;;;;14.30;6.90;;;;;;;;;;4946556;28;20506;-51
2022/03/28 06:18:22;;;;;;;12.13;7.70;;;;;;;;;;4943749;28;20505;-51
2022/03/28 06:20:48;;;;;;;15.87;7.23;;;;;;;;;;4942002;28;20569;-51
2022/03/28 06:23:14;;;;;;;13.53;7.47;;;;;;;;;;4939368;28;20535;-50
2022/03/28 06:25:40;;;;;;;15.63;7.57;;;;;;;;;;4938140;28;21047;-51
2022/03/28 06:28:07;;;;;;;17.87;9.27;;;;;;;;;;4943365;28;21035;-50
2022/03/28 06:30:34;;;;;;;16.70;9.37;;;;;;;;;;4935560;28;21019;-51
2022/03/28 06:33:00;;;;;;;20.57;9.37;;;;;;;;;;4939985;28;20542;-51
2022/03/28 06:35:26;;;;;;;18.17;8.03;;;;;;;;;;4941520;28;20858;-50
2022/03/28 06:37:53;;;;;;;12.50;8.20;;;;;;;;;;4940829;28;20526;-50
2022/03/28 06:40:19;;;;;;;12.57;7.40;;;;;;;;;;4941302;28;20577;-50
2022/03/28 06:42:45;;;;;;;29.83;11.27;;;;;;;;;;4940614;28;20431;-50
2022/03/28 06:45:11;;;;;;;30.87;9.87;;;;;;;;;;4942785;28;20518;-50
2022/03/28 06:47:37;;;;;;;26.17;8.80;;;;;;;;;;4931017;28;20534;-50
2022/03/28 06:50:05;;;;;;;22.33;9.53;;;;;;;;;;4938195;28;20447;-51
2022/03/28 06:52:31;;;;;;;15.63;9.00;;;;;;;;;;4938916;28;20566;-51
2022/03/28 06:54:57;;;;;;;16.50;8.37;;;;;;;;;;4940759;28;20638;-51
2022/03/28 06:57:23;;;;;;;16.63;8.93;;;;;;;;;;4933473;28;20558;-50
2022/03/28 06:59:55;;;;;;;8.53;7.50;;;;;;;;;;4929994;28;20547;-50
2022/03/28 07:02:43;;;;;;;22.53;8.57;;;;;;;;;;4970318;28;20217;-52
2022/03/28 07:05:25;;;;;;;17.83;9.03;;;;;;;;;;4928949;28;20486;-53
2022/03/28 07:07:54;;;;;;;20.87;9.83;;;;;;;;;;4936224;28;20805;-50
2022/03/28 07:10:20;;;;;;;13.13;8.60;;;;;;;;;;4959827;28;20446;-50
2022/03/28 07:12:47;;;;;;;12.70;7.67;;;;;;;;;;4948174;28;21067;-48
2022/03/28 07:15:13;;;;;;;15.90;7.83;;;;;;;;;;4950038;28;20527;-50
2022/03/28 07:17:51;;;;;;;16.63;9.13;;;;;;;;;;4947760;28;20423;-50
2022/03/28 07:20:17;;;;;;;16.83;9.50;;;;;;;;;;4933254;29;20475;-51
2022/03/28 07:22:43;;;;;;;14.57;8.00;;;;;;;;;;4942610;28;20434;-51
2022/03/28 07:25:10;;;;;;;15.10;8.63;;;;;;;;;;4942331;28;20942;-51
2022/03/28 07:27:37;;;;;;;11.40;7.67;;;;;;;;;;4941088;28;20530;-51
2022/03/28 07:30:03;;;;;;;11.63;7.50;;;;;;;;;;4943472;28;20506;-51
2022/03/28 07:32:29;;;;;;;12.60;8.90;;;;;;;;;;4941709;28;20440;-50
2022/03/28 07:34:55;;;;;;;20.73;9.00;;;;;;;;;;4941698;28;20439;-51
2022/03/28 07:37:22;;;;;;;17.97;9.03;;;;;;;;;;4941688;28;20538;-49
2022/03/28 07:39:48;;;;;;;27.87;9.13;;;;;;;;;;4938817;28;21426;-50
2022/03/28 07:42:14;;;;;;;18.43;9.07;;;;;;;;;;4940812;28;21094;-50
2022/03/28 07:44:42;;;;;;;12.53;8.90;;;;;;;;;;4939473;28;20395;-50
2022/03/28 07:47:11;;;;;;;15.10;8.90;;;;;;;;;;4939896;28;20438;-50
2022/03/28 07:49:38;;;;;;;18.63;9.30;;;;;;;;;;4941042;28;20454;-51
2022/03/28 07:52:07;;;;;;;14.93;8.83;;;;;;;;;;4942539;28;21485;-54
2022/03/28 07:54:33;;;;;;;17.50;9.77;;;;;;;;;;4956373;28;20446;-51
2022/03/28 07:56:59;;;;;;;17.10;10.70;;;;;;;;;;4939778;28;20885;-51
2022/03/28 07:59:26;;;;;;;19.27;10.50;;;;;;;;;;4940872;28;21206;-51
2022/03/28 08:01:52;;;;;;;18.00;10.57;;;;;;;;;;4936477;28;20542;-52
2022/03/28 08:04:18;;;;;;;17.93;10.03;;;;;;;;;;4935871;28;20431;-51
2022/03/28 08:06:44;;;;;;;12.83;9.00;;;;;;;;;;4948061;28;20455;-53
2022/03/28 08:09:10;;;;;;;19.50;11.23;;;;;;;;;;4936048;28;20474;-51
2022/03/28 08:11:43;;;;;;;19.33;9.70;;;;;;;;;;4928728;28;20763;-51
2022/03/28 08:14:14;;;;;;;20.60;10.47;;;;;;;;;;4939042;28;20527;-49
2022/03/28 08:16:40;;;;;;;26.80;10.60;;;;;;;;;;4937621;28;20883;-51
2022/03/28 08:19:06;;;;;;;18.00;9.97;;;;;;;;;;4937998;28;20442;-51
2022/03/28 08:21:32;;;;;;;15.70;9.93;;;;;;;;;;4940664;28;20478;-51
2022/03/28 08:23:58;;;;;;;14.80;8.70;;;;;;;;;;4942648;28;21180;-52
2022/03/28 08:26:26;;;;;;;19.57;11.27;;;;;;;;;;4939498;28;20878;-51
2022/03/28 08:28:53;;;;;;;16.83;10.40;;;;;;;;;;4940062;28;20485;-52
2022/03/28 08:31:41;;;;;;;18.10;10.47;;;;;;;;;;4938820;28;20435;-53
2022/03/28 08:34:10;;;;;;;19.87;9.97;;;;;;;;;;4970213;28;20443;-52
2022/03/28 08:36:36;;;;;;;20.00;10.83;;;;;;;;;;4939369;28;20638;-50
2022/03/28 08:39:02;;;;;;;26.20;9.90;;;;;;;;;;4937317;28;20477;-50
2022/03/28 08:41:28;;;;;;;20.30;9.80;;;;;;;;;;4940204;28;20508;-51
2022/03/28 08:43:54;;;;;;;18.90;11.53;;;;;;;;;;4937085;28;20439;-51
2022/03/28 08:46:20;;;;;;;16.10;10.40;;;;;;;;;;4938288;28;20458;-52
2022/03/28 08:48:46;;;;;;;24.43;11.60;;;;;;;;;;4938793;28;20438;-51
2022/03/28 08:51:13;;;;;;;17.53;9.57;;;;;;;;;;4941539;29;20438;-52
2022/03/28 08:53:39;;;;;;;17.70;10.40;;;;;;;;;;4937338;28;20447;-51
2022/03/28 08:56:05;;;;;;;15.40;9.80;;;;;;;;;;4940819;28;21534;-51
2022/03/28 08:58:40;;;;;;;20.33;11.07;;;;;;;;;;4938625;28;20438;-53
2022/03/28 09:01:11;;;;;;;17.37;10.77;;;;;;;;;;4939527;28;20986;-51
2022/03/28 09:03:42;;;;;;;18.10;11.03;;;;;;;;;;4938212;28;21077;-52
2022/03/28 09:06:26;;;;;;;18.97;10.87;;;;;;;;;;4940732;28;20724;-52
2022/03/28 09:08:57;;;;;;;19.63;12.13;;;;;;;;;;4943608;28;20844;-52
2022/03/28 09:11:23;;;;;;;23.17;9.83;;;;;;;;;;4943956;28;20438;-51
2022/03/28 09:13:50;;;;;;;21.97;12.90;;;;;;;;;;4936828;28;20438;-52
2022/03/28 09:16:20;;;;;;;22.07;11.73;;;;;;;;;;4939088;28;20996;-51
2022/03/28 09:18:46;;;;;;;16.90;10.53;;;;;;;;;;4934309;28;20493;-52
2022/03/28 09:21:14;;;;;;;20.73;11.10;;;;;;;;;;4943452;28;20482;-51
2022/03/28 09:23:48;;;;;;;19.30;11.33;;;;;;;;;;4940631;28;20522;-51
2022/03/28 09:26:20;;;;;;;18.87;11.47;;;;;;;;;;4940042;28;20509;-50
2022/03/28 09:28:58;;;;;;;17.03;12.97;;;;;;;;;;4941078;28;20454;-51
2022/03/28 09:31:30;;;;;;;19.60;11.50;;;;;;;;;;4938998;28;21099;-51
2022/03/28 09:34:11;;;;;;;27.57;11.20;;;;;;;;;;4939039;28;20481;-52
2022/03/28 09:36:40;;;;;;;19.30;11.63;;;;;;;;;;4944463;28;20526;-52
2022/03/28 09:39:09;;;;;;;26.67;12.53;;;;;;;;;;4937326;28;20852;-51
2022/03/28 09:41:35;;;;;;;19.23;10.93;;;;;;;;;;4942555;28;20482;-51
2022/03/28 09:44:01;;;;;;;18.30;11.90;;;;;;;;;;4941757;28;20431;-52
2022/03/28 09:46:28;;;;;;;20.10;11.23;;;;;;;;;;4937031;28;20513;-52
2022/03/28 09:48:55;;;;;;;22.17;12.20;;;;;;;;;;4939333;28;20891;-52
2022/03/28 09:51:21;;;;;;;18.07;12.07;;;;;;;;;;4940746;28;20792;-51
2022/03/28 09:53:48;;;;;;;18.67;13.10;;;;;;;;;;4942382;28;20431;-50
2022/03/28 09:56:14;;;;;;;17.53;11.03;;;;;;;;;;4938990;28;20549;-51
2022/03/28 09:58:48;;;;;;;19.50;11.03;;;;;;;;;;4944427;28;20431;-52
2022/03/28 10:01:24;;;;;;;21.37;13.00;;;;;;;;;;4953819;28;20569;-52
2022/03/28 10:03:54;;;;;;;19.00;13.37;;;;;;;;;;4938202;28;20740;-51
2022/03/28 10:06:20;;;;;;;20.97;13.60;;;;;;;;;;4940117;29;20427;-51
2022/03/28 10:08:46;;;;;;;21.00;12.73;;;;;;;;;;4941610;28;20458;-57
2022/03/28 10:11:12;;;;;;;20.37;12.77;;;;;;;;;;4940901;29;20442;-52
2022/03/28 10:13:38;;;;;;;21.93;13.47;;;;;;;;;;4941683;28;20454;-53
2022/03/28 10:16:04;;;;;;;21.07;13.33;;;;;;;;;;4943150;28;20497;-51
2022/03/28 10:18:32;;;;;;;22.33;12.70;;;;;;;;;;4939042;28;20443;-51
2022/03/28 10:20:58;;;;;;;23.33;13.23;;;;;;;;;;4944098;28;20494;-52
2022/03/28 10:23:27;;;;;;;18.27;13.30;;;;;;;;;;4938652;28;21308;-51
2022/03/28 10:25:54;;;;;;;25.80;13.57;;;;;;;;;;4942326;28;20448;-51
2022/03/28 10:28:21;;;;;;;22.50;13.60;;;;;;;;;;4942730;28;20502;-51
2022/03/28 10:30:47;;;;;;;18.50;13.30;;;;;;;;;;4939654;28;20497;-51
2022/03/28 10:33:16;;;;;;;22.87;15.53;;;;;;;;;;4940257;28;20851;-51
2022/03/28 10:35:56;;;;;;;22.57;14.07;;;;;;;;;;4942040;28;20975;-51
2022/03/28 10:38:22;;;;;;;20.00;13.83;;;;;;;;;;4923962;28;20455;-51
2022/03/28 10:41:11;;;;;;;22.80;13.50;;;;;;;;;;4940486;28;20479;-51
2022/03/28 10:43:37;;;;;;;20.37;13.73;;;;;;;;;;4945239;28;20455;-52
2022/03/28 10:46:04;;;;;;;18.00;11.77;;;;;;;;;;4941855;28;20581;-51
2022/03/28 10:48:33;;;;;;;23.33;13.57;;;;;;;;;;4939037;28;20513;-51
2022/03/28 10:51:04;;;;;;;18.30;13.37;;;;;;;;;;4937307;28;20443;-51
2022/03/28 10:53:39;;;;;;;24.97;14.70;;;;;;;;;;4929983;28;21349;-52
2022/03/28 10:56:17;;;;;;;24.13;14.33;;;;;;;;;;4934447;28;20450;-52
2022/03/28 10:58:53;;;;;;;16.63;12.30;;;;;;;;;;4939284;28;20497;-51
2022/03/28 11:01:38;;;;;;;26.30;16.10;;;;;;;;;;4939887;28;20494;-53
2022/03/28 11:04:22;;;;;;;20.93;13.80;;;;;;;;;;4954333;28;21062;-52
2022/03/28 11:06:49;;;;;;;18.53;12.93;;;;;;;;;;4940700;28;20506;-49
2022/03/28 11:09:37;;;;;;;27.63;14.00;;;;;;;;;;4940182;28;20447;-57
2022/03/28 11:12:07;;;;;;;22.90;13.80;;;;;;;;;;4937126;28;20454;-52
2022/03/28 11:14:53;;;;;;;20.27;11.93;;;;;;;;;;4927130;29;20446;-51
2022/03/28 11:17:30;;;;;;;19.10;12.93;;;;;;;;;;4934185;28;20465;-51
2022/03/28 11:19:57;;;;;;;21.77;11.90;;;;;;;;;;4943196;28;20434;-51
2022/03/28 11:22:42;;;;;;;21.37;12.17;;;;;;;;;;4935827;28;20459;-52
2022/03/28 11:25:27;;;;;;;20.83;12.40;;;;;;;;;;4936391;28;20451;-52
2022/03/28 11:28:02;;;;;;;22.20;12.23;;;;;;;;;;4940784;28;20477;-52
2022/03/28 11:30:28;;;;;;;23.70;13.00;;;;;;;;;;4939355;28;20490;-53
2022/03/28 11:33:03;;;;;;;29.23;14.30;;;;;;;;;;4937694;28;20950;-54
2022/03/28 11:35:30;;;;;;;22.00;13.27;;;;;;;;;;4958138;28;20435;-53
2022/03/28 11:38:00;;;;;;;28.37;14.53;;;;;;;;;;4947089;28;20462;-53
2022/03/28 11:40:48;;;;;;;21.07;14.53;;;;;;;;;;4941221;28;20479;-53
2022/03/28 11:43:42;;;;;;;21.43;13.20;;;;;;;;;;4942862;28;20506;-53
2022/03/28 11:46:16;;;;;;;25.57;15.47;;;;;;;;;;4928970;28;20447;-53
2022/03/28 11:48:54;;;;;;;24.10;14.50;;;;;;;;;;4941713;28;20458;-52
2022/03/28 11:51:26;;;;;;;19.97;13.50;;;;;;;;;;4944021;28;20431;-51
2022/03/28 11:54:04;;;;;;;28.33;15.00;;;;;;;;;;4933029;28;20869;-53
2022/03/28 11:56:32;;;;;;;19.10;13.33;;;;;;;;;;4938250;28;20525;-51
2022/03/28 11:59:06;;;;;;;20.67;12.90;;;;;;;;;;4936279;28;20482;-49
2022/03/28 12:01:36;;;;;;;26.13;14.27;;;;;;;;;;4934871;28;20561;-52
2022/03/28 12:04:24;;;;;;;22.47;15.07;;;;;;;;;;4952470;28;20579;-52
2022/03/28 12:06:56;;;;;;;19.13;12.53;;;;;;;;;;4937855;28;20435;-51
2022/03/28 12:09:22;;;;;;;22.30;13.87;;;;;;;;;;4938463;28;20466;-52
2022/03/28 12:11:49;;;;;;;19.97;13.47;;;;;;;;;;4937058;28;20496;-52
2022/03/28 12:14:16;;;;;;;24.27;14.80;;;;;;;;;;4934836;28;20557;-52
2022/03/28 12:16:46;;;;;;;19.43;14.80;;;;;;;;;;4911506;28;23760;-52
2022/03/28 12:19:33;;;;;;;18.50;13.13;;;;;;;;;;4969725;28;20434;-54
2022/03/28 12:22:21;;;;;;;20.27;13.67;;;;;;;;;;4933730;28;20475;-53
2022/03/28 12:24:52;;;;;;;17.87;12.87;;;;;;;;;;4938788;28;20458;-52
2022/03/28 12:27:19;;;;;;;23.60;15.30;;;;;;;;;;4934777;28;20457;-57
2022/03/28 12:29:45;;;;;;;20.10;14.33;;;;;;;;;;4932840;28;20826;-51
2022/03/28 12:32:16;;;;;;;21.30;12.93;;;;;;;;;;4927343;28;20435;-58
2022/03/28 12:34:46;;;;;;;22.07;13.67;;;;;;;;;;4934381;28;20434;-49
2022/03/28 12:37:17;;;;;;;21.50;13.90;;;;;;;;;;4936690;28;20489;-54
2022/03/28 12:39:44;;;;;;;22.57;15.40;;;;;;;;;;4920198;28;20431;-52
2022/03/28 12:42:30;;;;;;;21.03;17.10;;;;;;;;;;4945796;28;20462;-52
2022/03/28 12:44:58;;;;;;;19.60;12.80;;;;;;;;;;4932111;28;20450;-50
2022/03/28 12:47:37;;;;;;;24.93;16.77;;;;;;;;;;4923422;28;20427;-54
2022/03/28 12:50:08;;;;;;;18.87;12.43;;;;;;;;;;4918324;28;20442;-52
2022/03/28 12:52:36;;;;;;;25.83;13.23;;;;;;;;;;4940931;28;20462;-53
2022/03/28 12:55:04;;;;;;;17.50;12.90;;;;;;;;;;4935525;28;20442;-52
2022/03/28 12:57:37;;;;;;;21.70;14.30;;;;;;;;;;4923199;29;20879;-52
2022/03/28 13:00:36;;;;;;;19.33;16.10;;;;;;;;;;4969981;28;20466;-52
2022/03/28 13:03:03;;;;;;;17.03;11.17;;;;;;;;;;4934504;28;20463;-52
2022/03/28 13:05:40;;;;;;;20.40;12.10;;;;;;;;;;4939536;28;20442;-52
2022/03/28 13:08:13;;;;;;;16.30;12.77;;;;;;;;;;4938129;28;20485;-52
2022/03/28 13:11:11;;;;;;;17.87;11.60;;;;;;;;;;4940976;28;20854;-53
2022/03/28 13:14:02;;;;;;;18.53;11.70;;;;;;;;;;4936594;28;20430;-51
2022/03/28 13:16:45;;;;;;;19.53;10.97;;;;;;;;;;4943197;28;21030;-50
2022/03/28 13:19:30;;;;;;;17.53;12.70;;;;;;;;;;4933282;28;20529;-53
2022/03/28 13:22:15;;;;;;;15.90;11.63;;;;;;;;;;4943501;28;20513;-52
2022/03/28 13:24:57;;;;;;;17.17;12.10;;;;;;;;;;4944156;28;20450;-52
2022/03/28 13:30:18;;;;;;;16.87;12.20;;;;;;;;;;4939433;28;20791;-51
2022/03/28 13:32:58;;;;;;;14.63;10.40;;;;;;;;;;4943850;28;21072;-53
2022/03/28 13:35:46;;;;;;;15.53;10.93;;;;;;;;;;4944776;28;20447;-52
2022/03/28 13:38:15;;;;;;;14.60;10.83;;;;;;;;;;4946487;28;20466;-52
2022/03/28 13:40:44;;;;;;;19.60;12.57;;;;;;;;;;4946367;28;20471;-53
2022/03/28 13:43:17;;;;;;;18.23;12.73;;;;;;;;;;4946377;28;20439;-52
2022/03/28 13:45:45;;;;;;;14.87;11.90;;;;;;;;;;4940504;28;20968;-52
2022/03/28 13:48:12;;;;;;;19.67;10.97;;;;;;;;;;4943147;28;20543;-53
2022/03/28 13:50:49;;;;;;;16.30;11.93;;;;;;;;;;4938593;28;20958;-52
2022/03/28 13:53:18;;;;;;;16.90;10.83;;;;;;;;;;4935305;28;20438;-52
2022/03/28 13:55:45;;;;;;;16.43;11.93;;;;;;;;;;4949413;28;20443;-52
2022/03/28 13:58:11;;;;;;;17.83;10.13;;;;;;;;;;4949755;28;20437;-50
2022/03/28 14:00:37;;;;;;;15.27;9.83;;;;;;;;;;4935094;28;20514;-52
2022/03/28 14:03:05;;;;;;;13.77;10.20;;;;;;;;;;4930328;28;20455;-52
2022/03/28 14:05:31;;;;;;;16.27;10.43;;;;;;;;;;4932910;28;21231;-52
2022/03/28 14:08:03;;;;;;;10.50;9.07;;;;;;;;;;4927830;28;20978;-53
2022/03/28 14:10:30;;;;;;;25.60;10.93;;;;;;;;;;4915613;29;20539;-50
2022/03/28 14:12:56;;;;;;;20.70;10.70;;;;;;;;;;4931744;28;20455;-52
2022/03/28 14:15:22;;;;;;;15.83;9.27;;;;;;;;;;4932170;28;20481;-51
2022/03/28 14:17:48;;;;;;;15.70;9.50;;;;;;;;;;4929475;28;21832;-51
2022/03/28 14:20:17;;;;;;;17.70;10.20;;;;;;;;;;4937667;28;20479;-51
2022/03/28 14:22:43;;;;;;;16.27;10.30;;;;;;;;;;4941748;28;20466;-52
2022/03/28 14:25:10;;;;;;;14.37;10.20;;;;;;;;;;4939951;28;20972;-52
2022/03/28 14:27:36;;;;;;;14.77;9.80;;;;;;;;;;4935442;28;21429;-51
2022/03/28 14:30:03;;;;;;;12.80;9.10;;;;;;;;;;4937233;28;21659;-52
2022/03/28 14:32:31;;;;;;;14.50;10.50;;;;;;;;;;4938268;28;20445;-52
2022/03/28 14:35:03;;;;;;;14.57;9.73;;;;;;;;;;4934624;28;20563;-51
2022/03/28 14:37:29;;;;;;;16.13;11.07;;;;;;;;;;4933671;28;20548;-50
2022/03/28 14:39:55;;;;;;;12.70;9.57;;;;;;;;;;4930781;28;20447;-50
2022/03/28 14:42:21;;;;;;;13.97;8.40;;;;;;;;;;4940214;28;20435;-50
2022/03/28 14:44:47;;;;;;;15.30;10.23;;;;;;;;;;4941585;28;20443;-52